sensor_id;sensor_type;location;lat;lon;timestamp;pressure;altitude;pressure_sealevel;temperature
54026;BMP280;74404;50.662;3.398;2024-01-27T00:00:43;102886.19;;;6.60
54026;BMP280;74404;50.662;3.398;2024-01-27T00:03:09;102875.84;;;6.58
54026;BMP280;74404;50.662;3.398;2024-01-27T00:05:34;102883.75;;;6.58
54026;BMP280;74404;50.662;3.398;2024-01-27T00:08:00;102880.53;;;6.56
54026;BMP280;74404;50.662;3.398;2024-01-27T00:10:25;102878.06;;;6.55
54026;BMP280;74404;50.662;3.398;2024-01-27T00:12:50;102875.25;;;6.56
54026;BMP280;74404;50.662;3.398;2024-01-27T00:15:16;102882.97;;;6.58
54026;BMP280;74404;50.662;3.398;2024-01-27T00:17:41;102875.44;;;6.55
54026;BMP280;74404;50.662;3.398;2024-01-27T00:20:07;102881.53;;;6.55
54026;BMP280;74404;50.662;3.398;2024-01-27T00:22:33;102883.34;;;6.55
54026;BMP280;74404;50.662;3.398;2024-01-27T00:24:58;102880.91;;;6.53
54026;BMP280;74404;50.662;3.398;2024-01-27T00:27:24;102883.78;;;6.52
54026;BMP280;74404;50.662;3.398;2024-01-27T00:29:50;102878.91;;;6.49
54026;BMP280;74404;50.662;3.398;2024-01-27T00:32:15;102884.19;;;6.49
54026;BMP280;74404;50.662;3.398;2024-01-27T00:34:41;102882.53;;;6.48
54026;BMP280;74404;50.662;3.398;2024-01-27T00:37:06;102887.63;;;6.49
54026;BMP280;74404;50.662;3.398;2024-01-27T00:39:32;102890.66;;;6.46
54026;BMP280;74404;50.662;3.398;2024-01-27T00:41:58;102892.09;;;6.49
54026;BMP280;74404;50.662;3.398;2024-01-27T00:44:24;102890.84;;;6.44
54026;BMP280;74404;50.662;3.398;2024-01-27T00:46:49;102887.41;;;6.44
54026;BMP280;74404;50.662;3.398;2024-01-27T00:49:15;102881.31;;;6.43
54026;BMP280;74404;50.662;3.398;2024-01-27T00:51:40;102883.16;;;6.43
54026;BMP280;74404;50.662;3.398;2024-01-27T00:54:06;102883.56;;;6.40
54026;BMP280;74404;50.662;3.398;2024-01-27T00:56:32;102882.31;;;6.42
54026;BMP280;74404;50.662;3.398;2024-01-27T00:58:57;102875.44;;;6.41
54026;BMP280;74404;50.662;3.398;2024-01-27T01:01:23;102876.25;;;6.42
54026;BMP280;74404;50.662;3.398;2024-01-27T01:03:48;102874.63;;;6.41
54026;BMP280;74404;50.662;3.398;2024-01-27T01:06:13;102866.91;;;6.39
54026;BMP280;74404;50.662;3.398;2024-01-27T01:08:39;102872.16;;;6.39
54026;BMP280;74404;50.662;3.398;2024-01-27T01:11:04;102857.59;;;6.37
54026;BMP280;74404;50.662;3.398;2024-01-27T01:13:30;102865.09;;;6.40
54026;BMP280;74404;50.662;3.398;2024-01-27T01:15:55;102860.25;;;6.37
54026;BMP280;74404;50.662;3.398;2024-01-27T01:18:21;102860.25;;;6.37
54026;BMP280;74404;50.662;3.398;2024-01-27T01:20:46;102861.25;;;6.36
54026;BMP280;74404;50.662;3.398;2024-01-27T01:23:12;102864.06;;;6.34
54026;BMP280;74404;50.662;3.398;2024-01-27T01:25:37;102863.28;;;6.34
54026;BMP280;74404;50.662;3.398;2024-01-27T01:28:03;102869.75;;;6.31
54026;BMP280;74404;50.662;3.398;2024-01-27T01:30:28;102856.16;;;6.34
54026;BMP280;74404;50.662;3.398;2024-01-27T01:32:54;102852.72;;;6.34
54026;BMP280;74404;50.662;3.398;2024-01-27T01:35:19;102859.38;;;6.30
54026;BMP280;74404;50.662;3.398;2024-01-27T01:37:45;102849.47;;;6.32
54026;BMP280;74404;50.662;3.398;2024-01-27T01:40:13;102853.53;;;6.34
54026;BMP280;74404;50.662;3.398;2024-01-27T01:42:40;102854.31;;;6.28
54026;BMP280;74404;50.662;3.398;2024-01-27T01:45:06;102845.41;;;6.29
54026;BMP280;74404;50.662;3.398;2024-01-27T01:47:32;102845.59;;;6.28
54026;BMP280;74404;50.662;3.398;2024-01-27T01:49:59;102847.25;;;6.29
54026;BMP280;74404;50.662;3.398;2024-01-27T01:52:24;102856.16;;;6.28
54026;BMP280;74404;50.662;3.398;2024-01-27T01:54:50;102867.50;;;6.28
54026;BMP280;74404;50.662;3.398;2024-01-27T01:57:16;102861.63;;;6.26
54026;BMP280;74404;50.662;3.398;2024-01-27T01:59:42;102871.97;;;6.28
54026;BMP280;74404;50.662;3.398;2024-01-27T02:02:08;102865.28;;;6.25
54026;BMP280;74404;50.662;3.398;2024-01-27T02:04:43;102867.31;;;6.23
54026;BMP280;74404;50.662;3.398;2024-01-27T02:07:09;102867.31;;;6.23
54026;BMP280;74404;50.662;3.398;2024-01-27T02:09:35;102853.91;;;6.24
54026;BMP280;74404;50.662;3.398;2024-01-27T02:12:01;102863.88;;;6.22
54026;BMP280;74404;50.662;3.398;2024-01-27T02:14:26;102864.88;;;6.21
54026;BMP280;74404;50.662;3.398;2024-01-27T02:16:53;102860.03;;;6.18
54026;BMP280;74404;50.662;3.398;2024-01-27T02:19:19;102853.13;;;6.17
54026;BMP280;74404;50.662;3.398;2024-01-27T02:21:44;102858.38;;;6.17
54026;BMP280;74404;50.662;3.398;2024-01-27T02:24:10;102846.41;;;6.15
54026;BMP280;74404;50.662;3.398;2024-01-27T02:26:35;102847.81;;;6.11
54026;BMP280;74404;50.662;3.398;2024-01-27T02:29:01;102856.16;;;6.14
54026;BMP280;74404;50.662;3.398;2024-01-27T02:31:26;102851.06;;;6.13
54026;BMP280;74404;50.662;3.398;2024-01-27T02:33:52;102853.50;;;6.14
54026;BMP280;74404;50.662;3.398;2024-01-27T02:36:17;102852.91;;;6.12
54026;BMP280;74404;50.662;3.398;2024-01-27T02:38:43;102852.72;;;6.14
54026;BMP280;74404;50.662;3.398;2024-01-27T02:41:10;102855.53;;;6.12
54026;BMP280;74404;50.662;3.398;2024-01-27T02:43:37;102847.81;;;6.11
54026;BMP280;74404;50.662;3.398;2024-01-27T02:46:06;102852.91;;;6.12
54026;BMP280;74404;50.662;3.398;2024-01-27T02:48:31;102853.31;;;6.09
54026;BMP280;74404;50.662;3.398;2024-01-27T02:50:57;102856.78;;;6.10
54026;BMP280;74404;50.662;3.398;2024-01-27T02:53:22;102866.88;;;6.13
54026;BMP280;74404;50.662;3.398;2024-01-27T02:55:48;102862.66;;;6.12
54026;BMP280;74404;50.662;3.398;2024-01-27T02:58:13;102859.59;;;6.08
54026;BMP280;74404;50.662;3.398;2024-01-27T03:00:39;102852.91;;;6.05
54026;BMP280;74404;50.662;3.398;2024-01-27T03:03:04;102855.56;;;6.05
54026;BMP280;74404;50.662;3.398;2024-01-27T03:05:30;102853.91;;;6.04
54026;BMP280;74404;50.662;3.398;2024-01-27T03:07:56;102862.84;;;6.03
54026;BMP280;74404;50.662;3.398;2024-01-27T03:10:21;102863.25;;;6.07
54026;BMP280;74404;50.662;3.398;2024-01-27T03:12:47;102865.25;;;6.05
54026;BMP280;74404;50.662;3.398;2024-01-27T03:15:12;102863.84;;;6.02
54026;BMP280;74404;50.662;3.398;2024-01-27T03:17:38;102866.69;;;6.01
54026;BMP280;74404;50.662;3.398;2024-01-27T03:20:03;102856.56;;;6.04
54026;BMP280;74404;50.662;3.398;2024-01-27T03:22:29;102863.03;;;6.02
54026;BMP280;74404;50.662;3.398;2024-01-27T03:24:54;102862.03;;;6.03
54026;BMP280;74404;50.662;3.398;2024-01-27T03:27:20;102862.22;;;6.01
54026;BMP280;74404;50.662;3.398;2024-01-27T03:29:46;102863.03;;;6.02
54026;BMP280;74404;50.662;3.398;2024-01-27T03:32:11;102862.59;;;5.98
54026;BMP280;74404;50.662;3.398;2024-01-27T03:34:43;102866.28;;;5.97
54026;BMP280;74404;50.662;3.398;2024-01-27T03:37:09;102879.25;;;5.99
54026;BMP280;74404;50.662;3.398;2024-01-27T03:39:34;102867.88;;;5.98
54026;BMP280;74404;50.662;3.398;2024-01-27T03:42:00;102851.69;;;5.95
54026;BMP280;74404;50.662;3.398;2024-01-27T03:44:25;102864.63;;;5.96
54026;BMP280;74404;50.662;3.398;2024-01-27T03:46:51;102870.72;;;5.97
54026;BMP280;74404;50.662;3.398;2024-01-27T03:49:16;102876.25;;;5.95
54026;BMP280;74404;50.662;3.398;2024-01-27T03:51:42;102865.06;;;5.93
54026;BMP280;74404;50.662;3.398;2024-01-27T03:54:07;102864.06;;;5.94
54026;BMP280;74404;50.662;3.398;2024-01-27T03:56:32;102872.16;;;5.93
54026;BMP280;74404;50.662;3.398;2024-01-27T03:58:58;102869.72;;;5.91
54026;BMP280;74404;50.662;3.398;2024-01-27T04:01:23;102875.38;;;5.88
54026;BMP280;74404;50.662;3.398;2024-01-27T04:03:49;102864.44;;;5.91
54026;BMP280;74404;50.662;3.398;2024-01-27T04:06:15;102865.44;;;5.90
54026;BMP280;74404;50.662;3.398;2024-01-27T04:08:40;102858.75;;;5.88
54026;BMP280;74404;50.662;3.398;2024-01-27T04:11:09;102874.38;;;5.89
54026;BMP280;74404;50.662;3.398;2024-01-27T04:13:35;102877.41;;;5.86
54026;BMP280;74404;50.662;3.398;2024-01-27T04:16:01;102883.66;;;5.85
54026;BMP280;74404;50.662;3.398;2024-01-27T04:18:26;102875.97;;;5.83
54026;BMP280;74404;50.662;3.398;2024-01-27T04:20:52;102875.97;;;5.83
54026;BMP280;74404;50.662;3.398;2024-01-27T04:23:17;102869.06;;;5.82
54026;BMP280;74404;50.662;3.398;2024-01-27T04:25:43;102874.34;;;5.82
54026;BMP280;74404;50.662;3.398;2024-01-27T04:28:09;102870.69;;;5.83
54026;BMP280;74404;50.662;3.398;2024-01-27T04:30:37;102874.34;;;5.82
54026;BMP280;74404;50.662;3.398;2024-01-27T04:33:02;102871.53;;;5.77
54026;BMP280;74404;50.662;3.398;2024-01-27T04:35:29;102871.72;;;5.82
54026;BMP280;74404;50.662;3.398;2024-01-27T04:37:54;102865.41;;;5.83
54026;BMP280;74404;50.662;3.398;2024-01-27T04:40:20;102871.72;;;5.82
54026;BMP280;74404;50.662;3.398;2024-01-27T04:42:45;102864.63;;;5.76
54026;BMP280;74404;50.662;3.398;2024-01-27T04:45:14;102874.16;;;5.77
54026;BMP280;74404;50.662;3.398;2024-01-27T04:47:40;102874.53;;;5.74
54026;BMP280;74404;50.662;3.398;2024-01-27T04:50:05;102869.47;;;5.73
54026;BMP280;74404;50.662;3.398;2024-01-27T04:52:31;102859.31;;;5.70
54026;BMP280;74404;50.662;3.398;2024-01-27T04:54:56;102861.56;;;5.73
54026;BMP280;74404;50.662;3.398;2024-01-27T04:57:23;102849.75;;;5.68
54026;BMP280;74404;50.662;3.398;2024-01-27T04:59:48;102859.72;;;5.73
54026;BMP280;74404;50.662;3.398;2024-01-27T05:02:14;102848.78;;;5.63
54026;BMP280;74404;50.662;3.398;2024-01-27T05:04:39;102871.22;;;5.65
54026;BMP280;74404;50.662;3.398;2024-01-27T05:07:05;102873.28;;;5.63
54026;BMP280;74404;50.662;3.398;2024-01-27T05:09:30;102888.50;;;5.68
54026;BMP280;74404;50.662;3.398;2024-01-27T05:11:56;102878.75;;;5.68
54026;BMP280;74404;50.662;3.398;2024-01-27T05:14:21;102871.03;;;5.67
54026;BMP280;74404;50.662;3.398;2024-01-27T05:16:47;102867.22;;;5.70
54026;BMP280;74404;50.662;3.398;2024-01-27T05:19:12;102856.69;;;5.70
54026;BMP280;74404;50.662;3.398;2024-01-27T05:21:38;102863.31;;;5.65
54026;BMP280;74404;50.662;3.398;2024-01-27T05:24:04;102855.03;;;5.62
54026;BMP280;74404;50.662;3.398;2024-01-27T05:26:29;102848.56;;;5.64
54026;BMP280;74404;50.662;3.398;2024-01-27T05:28:55;102861.13;;;5.62
54026;BMP280;74404;50.662;3.398;2024-01-27T05:31:20;102859.69;;;5.60
54026;BMP280;74404;50.662;3.398;2024-01-27T05:33:46;102859.69;;;5.60
54026;BMP280;74404;50.662;3.398;2024-01-27T05:36:11;102870.44;;;5.65
54026;BMP280;74404;50.662;3.398;2024-01-27T05:38:37;102875.69;;;5.58
54026;BMP280;74404;50.662;3.398;2024-01-27T05:41:03;102859.47;;;5.55
54026;BMP280;74404;50.662;3.398;2024-01-27T05:43:28;102870.22;;;5.60
54026;BMP280;74404;50.662;3.398;2024-01-27T05:45:54;102864.16;;;5.59
54026;BMP280;74404;50.662;3.398;2024-01-27T05:48:20;102872.06;;;5.59
54026;BMP280;74404;50.662;3.398;2024-01-27T05:50:59;102878.13;;;5.60
54026;BMP280;74404;50.662;3.398;2024-01-27T05:53:25;102880.78;;;5.60
54026;BMP280;74404;50.662;3.398;2024-01-27T05:55:51;102884.19;;;5.54
54026;BMP280;74404;50.662;3.398;2024-01-27T05:58:18;102888.25;;;5.56
54026;BMP280;74404;50.662;3.398;2024-01-27T06:00:46;102892.72;;;5.56
54026;BMP280;74404;50.662;3.398;2024-01-27T06:03:12;102884.56;;;5.51
54026;BMP280;74404;50.662;3.398;2024-01-27T06:05:38;102879.53;;;5.56
54026;BMP280;74404;50.662;3.398;2024-01-27T06:08:06;102872.63;;;5.55
54026;BMP280;74404;50.662;3.398;2024-01-27T06:10:32;102860.66;;;5.52
54026;BMP280;74404;50.662;3.398;2024-01-27T06:12:57;102852.94;;;5.51
54026;BMP280;74404;50.662;3.398;2024-01-27T06:15:23;102846.06;;;5.50
54026;BMP280;74404;50.662;3.398;2024-01-27T06:17:49;102843.44;;;5.50
54026;BMP280;74404;50.662;3.398;2024-01-27T06:20:14;102854.38;;;5.53
54026;BMP280;74404;50.662;3.398;2024-01-27T06:22:42;102862.69;;;5.50
54026;BMP280;74404;50.662;3.398;2024-01-27T06:25:08;102872.41;;;5.50
54026;BMP280;74404;50.662;3.398;2024-01-27T06:27:34;102863.47;;;5.44
54026;BMP280;74404;50.662;3.398;2024-01-27T06:29:59;102882.38;;;5.47
54026;BMP280;74404;50.662;3.398;2024-01-27T06:32:25;102877.09;;;5.47
54026;BMP280;74404;50.662;3.398;2024-01-27T06:34:50;102867.56;;;5.46
54026;BMP280;74404;50.662;3.398;2024-01-27T06:37:15;102865.31;;;5.43
54026;BMP280;74404;50.662;3.398;2024-01-27T06:39:41;102852.75;;;5.45
54026;BMP280;74404;50.662;3.398;2024-01-27T06:42:06;102856.81;;;5.48
54026;BMP280;74404;50.662;3.398;2024-01-27T06:44:32;102853.78;;;5.44
54026;BMP280;74404;50.662;3.398;2024-01-27T06:46:57;102874.84;;;5.44
54026;BMP280;74404;50.662;3.398;2024-01-27T06:49:23;102876.03;;;5.42
54026;BMP280;74404;50.662;3.398;2024-01-27T06:51:48;102880.31;;;5.43
54026;BMP280;74404;50.662;3.398;2024-01-27T06:54:13;102889.19;;;5.42
54026;BMP280;74404;50.662;3.398;2024-01-27T06:56:39;102894.03;;;5.38
54026;BMP280;74404;50.662;3.398;2024-01-27T06:59:04;102886.56;;;5.42
54026;BMP280;74404;50.662;3.398;2024-01-27T07:01:30;102889.19;;;5.42
54026;BMP280;74404;50.662;3.398;2024-01-27T07:03:55;102885.16;;;5.39
54026;BMP280;74404;50.662;3.398;2024-01-27T07:06:21;102885.16;;;5.39
54026;BMP280;74404;50.662;3.398;2024-01-27T07:08:46;102882.31;;;5.41
54026;BMP280;74404;50.662;3.398;2024-01-27T07:11:12;102890.41;;;5.39
54026;BMP280;74404;50.662;3.398;2024-01-27T07:13:37;102899.94;;;5.40
54026;BMP280;74404;50.662;3.398;2024-01-27T07:16:04;102899.88;;;5.34
54026;BMP280;74404;50.662;3.398;2024-01-27T07:18:29;102897.25;;;5.34
54026;BMP280;74404;50.662;3.398;2024-01-27T07:20:55;102908.00;;;5.32
54026;BMP280;74404;50.662;3.398;2024-01-27T07:23:20;102909.41;;;5.28
54026;BMP280;74404;50.662;3.398;2024-01-27T07:25:46;102906.97;;;5.33
54026;BMP280;74404;50.662;3.398;2024-01-27T07:28:11;102902.75;;;5.32
54026;BMP280;74404;50.662;3.398;2024-01-27T07:30:37;102908.84;;;5.33
54026;BMP280;74404;50.662;3.398;2024-01-27T07:33:03;102906.97;;;5.33
54026;BMP280;74404;50.662;3.398;2024-01-27T07:35:29;102894.63;;;5.34
54026;BMP280;74404;50.662;3.398;2024-01-27T07:37:57;102889.94;;;5.29
54026;BMP280;74404;50.662;3.398;2024-01-27T07:40:22;102879.59;;;5.27
54026;BMP280;74404;50.662;3.398;2024-01-27T07:42:47;102882.88;;;5.30
54026;BMP280;74404;50.662;3.398;2024-01-27T07:45:13;102880.25;;;5.30
54026;BMP280;74404;50.662;3.398;2024-01-27T07:47:39;102879.41;;;5.29
54026;BMP280;74404;50.662;3.398;2024-01-27T07:50:04;102878.81;;;5.27
54026;BMP280;74404;50.662;3.398;2024-01-27T07:52:30;102882.25;;;5.27
54026;BMP280;74404;50.662;3.398;2024-01-27T07:54:55;102873.09;;;5.23
54026;BMP280;74404;50.662;3.398;2024-01-27T07:57:21;102869.66;;;5.23
54026;BMP280;74404;50.662;3.398;2024-01-27T07:59:47;102881.44;;;5.27
54026;BMP280;74404;50.662;3.398;2024-01-27T08:02:13;102880.00;;;5.24
54026;BMP280;74404;50.662;3.398;2024-01-27T08:04:38;102875.56;;;5.25
54026;BMP280;74404;50.662;3.398;2024-01-27T08:07:04;102872.50;;;5.21
54026;BMP280;74404;50.662;3.398;2024-01-27T08:09:35;102881.75;;;5.17
54026;BMP280;74404;50.662;3.398;2024-01-27T08:12:00;102891.72;;;5.22
54026;BMP280;74404;50.662;3.398;2024-01-27T08:14:27;102891.72;;;5.22
54026;BMP280;74404;50.662;3.398;2024-01-27T08:16:56;102901.66;;;5.20
54026;BMP280;74404;50.662;3.398;2024-01-27T08:19:23;102906.53;;;5.23
54026;BMP280;74404;50.662;3.398;2024-01-27T08:21:49;102899.00;;;5.20
54026;BMP280;74404;50.662;3.398;2024-01-27T08:24:14;102903.03;;;5.16
54026;BMP280;74404;50.662;3.398;2024-01-27T08:26:40;102901.44;;;5.15
54026;BMP280;74404;50.662;3.398;2024-01-27T08:29:08;102902.03;;;5.17
54026;BMP280;74404;50.662;3.398;2024-01-27T08:31:33;102902.84;;;5.17
54026;BMP280;74404;50.662;3.398;2024-01-27T08:33:59;102891.50;;;5.17
54026;BMP280;74404;50.662;3.398;2024-01-27T08:36:24;102896.16;;;5.15
54026;BMP280;74404;50.662;3.398;2024-01-27T08:38:50;102888.66;;;5.12
54026;BMP280;74404;50.662;3.398;2024-01-27T08:41:16;102891.91;;;5.14
54026;BMP280;74404;50.662;3.398;2024-01-27T08:43:41;102871.41;;;5.09
54026;BMP280;74404;50.662;3.398;2024-01-27T08:46:06;102862.69;;;5.08
54026;BMP280;74404;50.662;3.398;2024-01-27T08:48:36;102867.97;;;5.08
54026;BMP280;74404;50.662;3.398;2024-01-27T08:51:02;102876.84;;;5.07
54026;BMP280;74404;50.662;3.398;2024-01-27T08:53:27;102887.78;;;5.04
54026;BMP280;74404;50.662;3.398;2024-01-27T08:55:53;102898.47;;;5.03
54026;BMP280;74404;50.662;3.398;2024-01-27T08:58:18;102897.31;;;5.05
54026;BMP280;74404;50.662;3.398;2024-01-27T09:00:44;102906.19;;;5.04
54026;BMP280;74404;50.662;3.398;2024-01-27T09:03:09;102908.63;;;5.06
54026;BMP280;74404;50.662;3.398;2024-01-27T09:05:35;102909.47;;;5.06
54026;BMP280;74404;50.662;3.398;2024-01-27T09:08:00;102907.84;;;5.05
54026;BMP280;74404;50.662;3.398;2024-01-27T09:10:26;102901.56;;;5.06
54026;BMP280;74404;50.662;3.398;2024-01-27T09:12:51;102908.03;;;5.04
54026;BMP280;74404;50.662;3.398;2024-01-27T09:15:16;102902.56;;;5.05
54026;BMP280;74404;50.662;3.398;2024-01-27T09:17:42;102905.81;;;5.07
54026;BMP280;74404;50.662;3.398;2024-01-27T09:20:08;102914.56;;;5.08
54026;BMP280;74404;50.662;3.398;2024-01-27T09:22:34;102922.44;;;5.08
54026;BMP280;74404;50.662;3.398;2024-01-27T09:24:59;102925.31;;;5.13
54026;BMP280;74404;50.662;3.398;2024-01-27T09:27:25;102915.97;;;5.11
54026;BMP280;74404;50.662;3.398;2024-01-27T09:29:50;102921.25;;;5.11
54026;BMP280;74404;50.662;3.398;2024-01-27T09:32:16;102917.00;;;5.09
54026;BMP280;74404;50.662;3.398;2024-01-27T09:34:41;102915.78;;;5.12
54026;BMP280;74404;50.662;3.398;2024-01-27T09:37:07;102926.72;;;5.16
54026;BMP280;74404;50.662;3.398;2024-01-27T09:39:32;102921.44;;;5.16
54026;BMP280;74404;50.662;3.398;2024-01-27T09:42:00;102925.72;;;5.17
54026;BMP280;74404;50.662;3.398;2024-01-27T09:44:29;102923.09;;;5.17
54026;BMP280;74404;50.662;3.398;2024-01-27T09:46:55;102925.72;;;5.17
54026;BMP280;74404;50.662;3.398;2024-01-27T09:49:20;102915.63;;;5.20
54026;BMP280;74404;50.662;3.398;2024-01-27T09:51:46;102926.59;;;5.24
54026;BMP280;74404;50.662;3.398;2024-01-27T09:54:11;102924.97;;;5.23
54026;BMP280;74404;50.662;3.398;2024-01-27T09:56:37;102927.22;;;5.26
54026;BMP280;74404;50.662;3.398;2024-01-27T09:59:05;102919.09;;;5.27
54026;BMP280;74404;50.662;3.398;2024-01-27T10:01:32;102925.22;;;5.28
54026;BMP280;74404;50.662;3.398;2024-01-27T10:03:59;102930.09;;;5.31
54026;BMP280;74404;50.662;3.398;2024-01-27T10:06:25;102927.28;;;5.33
54026;BMP280;74404;50.662;3.398;2024-01-27T10:08:54;102933.31;;;5.33
54026;BMP280;74404;50.662;3.398;2024-01-27T10:11:21;102929.47;;;5.36
54026;BMP280;74404;50.662;3.398;2024-01-27T10:13:55;102930.13;;;5.38
54026;BMP280;74404;50.662;3.398;2024-01-27T10:16:21;102932.09;;;5.36
54026;BMP280;74404;50.662;3.398;2024-01-27T10:18:47;102939.63;;;5.39
54026;BMP280;74404;50.662;3.398;2024-01-27T10:21:17;102941.09;;;5.41
54026;BMP280;74404;50.662;3.398;2024-01-27T10:23:43;102932.16;;;5.42
54026;BMP280;74404;50.662;3.398;2024-01-27T10:26:09;102934.41;;;5.45
54026;BMP280;74404;50.662;3.398;2024-01-27T10:28:35;102941.31;;;5.46
54026;BMP280;74404;50.662;3.398;2024-01-27T10:31:13;102937.03;;;5.45
54026;BMP280;74404;50.662;3.398;2024-01-27T10:33:39;102947.38;;;5.47
54026;BMP280;74404;50.662;3.398;2024-01-27T10:36:05;102941.13;;;5.48
54026;BMP280;74404;50.662;3.398;2024-01-27T10:38:39;102943.53;;;5.50
54026;BMP280;74404;50.662;3.398;2024-01-27T10:41:09;102944.16;;;5.52
54026;BMP280;74404;50.662;3.398;2024-01-27T10:43:38;102942.97;;;5.54
54026;BMP280;74404;50.662;3.398;2024-01-27T10:46:08;102926.97;;;5.56
54026;BMP280;74404;50.662;3.398;2024-01-27T10:48:36;102940.56;;;5.59
54026;BMP280;74404;50.662;3.398;2024-01-27T10:51:08;102932.66;;;5.59
54026;BMP280;74404;50.662;3.398;2024-01-27T10:53:35;102931.03;;;5.58
54026;BMP280;74404;50.662;3.398;2024-01-27T10:56:03;102927.00;;;5.62
54026;BMP280;74404;50.662;3.398;2024-01-27T10:58:33;102929.47;;;5.64
54026;BMP280;74404;50.662;3.398;2024-01-27T11:01:08;102916.88;;;5.66
54026;BMP280;74404;50.662;3.398;2024-01-27T11:03:38;102913.19;;;5.67
54026;BMP280;74404;50.662;3.398;2024-01-27T11:06:05;102921.94;;;5.67
54026;BMP280;74404;50.662;3.398;2024-01-27T11:08:31;102914.66;;;5.63
54026;BMP280;74404;50.662;3.398;2024-01-27T11:10:58;102934.09;;;5.68
54026;BMP280;74404;50.662;3.398;2024-01-27T11:13:24;102921.94;;;5.67
54026;BMP280;74404;50.662;3.398;2024-01-27T11:15:55;102923.38;;;5.70
54026;BMP280;74404;50.662;3.398;2024-01-27T11:18:21;102925.41;;;5.75
54026;BMP280;74404;50.662;3.398;2024-01-27T11:20:47;102936.56;;;5.77
54026;BMP280;74404;50.662;3.398;2024-01-27T11:23:13;102932.16;;;5.77
54026;BMP280;74404;50.662;3.398;2024-01-27T11:25:41;102928.47;;;5.78
54026;BMP280;74404;50.662;3.398;2024-01-27T11:30:47;102922.78;;;5.81
54026;BMP280;74404;50.662;3.398;2024-01-27T11:33:13;102905.16;;;5.82
54026;BMP280;74404;50.662;3.398;2024-01-27T11:35:39;102926.03;;;5.83
54026;BMP280;74404;50.662;3.398;2024-01-27T11:38:04;102907.59;;;5.83
54026;BMP280;74404;50.662;3.398;2024-01-27T11:40:30;102909.84;;;5.86
54026;BMP280;74404;50.662;3.398;2024-01-27T11:43:00;102907.00;;;5.88
54026;BMP280;74404;50.662;3.398;2024-01-27T11:45:27;102897.06;;;5.90
54026;BMP280;74404;50.662;3.398;2024-01-27T11:47:56;102893.25;;;5.93
54026;BMP280;74404;50.662;3.398;2024-01-27T11:50:22;102877.41;;;5.86
54026;BMP280;74404;50.662;3.398;2024-01-27T11:52:48;102887.78;;;5.94
54026;BMP280;74404;50.662;3.398;2024-01-27T11:55:14;102880.44;;;5.96
54026;BMP280;74404;50.662;3.398;2024-01-27T11:57:44;102881.06;;;5.98
54026;BMP280;74404;50.662;3.398;2024-01-27T12:00:10;102871.97;;;6.01
54026;BMP280;74404;50.662;3.398;2024-01-27T12:02:37;102879.47;;;6.04
54026;BMP280;74404;50.662;3.398;2024-01-27T12:05:06;102867.69;;;6.06
54026;BMP280;74404;50.662;3.398;2024-01-27T12:07:33;102866.91;;;6.06
54026;BMP280;74404;50.662;3.398;2024-01-27T12:09:58;102872.59;;;6.10
54026;BMP280;74404;50.662;3.398;2024-01-27T12:12:24;102871.34;;;6.12
54026;BMP280;74404;50.662;3.398;2024-01-27T12:14:51;102868.53;;;6.14
54026;BMP280;74404;50.662;3.398;2024-01-27T12:17:17;102871.78;;;6.16
54026;BMP280;74404;50.662;3.398;2024-01-27T12:19:47;102864.66;;;6.16
54026;BMP280;74404;50.662;3.398;2024-01-27T12:22:25;102864.06;;;6.21
54026;BMP280;74404;50.662;3.398;2024-01-27T12:24:54;102851.69;;;6.21
54026;BMP280;74404;50.662;3.398;2024-01-27T12:27:22;102857.59;;;6.23
54026;BMP280;74404;50.662;3.398;2024-01-27T12:29:48;102846.00;;;6.24
54026;BMP280;74404;50.662;3.398;2024-01-27T12:32:15;102841.97;;;6.29
54026;BMP280;74404;50.662;3.398;2024-01-27T12:34:42;102834.66;;;6.31
54026;BMP280;74404;50.662;3.398;2024-01-27T12:37:13;102829.97;;;6.33
54026;BMP280;74404;50.662;3.398;2024-01-27T12:39:47;102828.78;;;6.35
54026;BMP280;74404;50.662;3.398;2024-01-27T12:42:16;102824.31;;;6.36
54026;BMP280;74404;50.662;3.398;2024-01-27T12:44:42;102824.91;;;6.38
54026;BMP280;74404;50.662;3.398;2024-01-27T12:47:09;102816.78;;;6.39
54026;BMP280;74404;50.662;3.398;2024-01-27T12:49:36;102817.41;;;6.41
54026;BMP280;74404;50.662;3.398;2024-01-27T12:52:02;102821.25;;;6.45
54026;BMP280;74404;50.662;3.398;2024-01-27T12:54:28;102821.06;;;6.47
54026;BMP280;74404;50.662;3.398;2024-01-27T12:56:53;102818.63;;;6.52
54026;BMP280;74404;50.662;3.398;2024-01-27T12:59:19;102820.66;;;6.50
54026;BMP280;74404;50.662;3.398;2024-01-27T13:01:45;102821.03;;;6.54
54026;BMP280;74404;50.662;3.398;2024-01-27T13:04:10;102816.34;;;6.56
54026;BMP280;74404;50.662;3.398;2024-01-27T13:06:36;102811.47;;;6.59
54026;BMP280;74404;50.662;3.398;2024-01-27T13:09:03;102807.22;;;6.58
54026;BMP280;74404;50.662;3.398;2024-01-27T13:11:29;102810.66;;;6.59
54026;BMP280;74404;50.662;3.398;2024-01-27T13:13:54;102797.44;;;6.65
54026;BMP280;74404;50.662;3.398;2024-01-27T13:16:20;102799.31;;;6.65
54026;BMP280;74404;50.662;3.398;2024-01-27T13:18:45;102804.59;;;6.65
54026;BMP280;74404;50.662;3.398;2024-01-27T13:21:11;102815.31;;;6.70
54026;BMP280;74404;50.662;3.398;2024-01-27T13:23:37;102806.59;;;6.70
54026;BMP280;74404;50.662;3.398;2024-01-27T13:26:03;102802.31;;;6.69
54026;BMP280;74404;50.662;3.398;2024-01-27T13:28:29;102803.34;;;6.74
54026;BMP280;74404;50.662;3.398;2024-01-27T13:30:55;102799.88;;;6.74
54026;BMP280;74404;50.662;3.398;2024-01-27T13:33:20;102799.25;;;6.78
54026;BMP280;74404;50.662;3.398;2024-01-27T13:35:46;102801.69;;;6.80
54026;BMP280;74404;50.662;3.398;2024-01-27T13:38:15;102810.81;;;6.84
54026;BMP280;74404;50.662;3.398;2024-01-27T13:40:45;102811.22;;;6.88
54026;BMP280;74404;50.662;3.398;2024-01-27T13:43:10;102812.03;;;6.88
54026;BMP280;74404;50.662;3.398;2024-01-27T13:45:36;102803.91;;;6.90
54026;BMP280;74404;50.662;3.398;2024-01-27T13:48:01;102803.47;;;6.93
54026;BMP280;74404;50.662;3.398;2024-01-27T13:50:27;102784.78;;;6.94
54026;BMP280;74404;50.662;3.398;2024-01-27T13:52:55;102781.09;;;6.95
54026;BMP280;74404;50.662;3.398;2024-01-27T13:55:21;102774.81;;;6.96
54026;BMP280;74404;50.662;3.398;2024-01-27T13:57:47;102770.94;;;6.99
54026;BMP280;74404;50.662;3.398;2024-01-27T14:00:13;102771.78;;;6.99
54026;BMP280;74404;50.662;3.398;2024-01-27T14:02:39;102763.66;;;7.01
54026;BMP280;74404;50.662;3.398;2024-01-27T14:05:05;102755.53;;;7.02